createdAt,value
2015-03-21T13:13:32.424Z,19.7
2015-03-21T15:45:49.135Z,22.1
2015-03-21T15:46:07.604Z,22.3
2015-03-21T15:46:25.979Z,22.4
2015-03-21T15:46:44.432Z,22.5
2015-03-21T15:47:03.076Z,22.6
2015-03-21T15:47:21.482Z,22.7
2015-03-21T15:47:39.919Z,22.7
2015-03-21T15:47:58.390Z,22.8
2015-03-21T15:48:16.874Z,22.8
2015-03-21T15:48:35.359Z,22.8
2015-03-21T15:48:53.874Z,22.9
2015-03-21T15:49:12.471Z,22.9
2015-03-21T15:49:31.174Z,23
2015-03-21T15:49:49.659Z,23
2015-03-21T15:50:08.146Z,23.1
2015-03-21T15:50:26.724Z,23.2
2015-03-21T15:50:45.146Z,23.2
2015-03-21T15:51:03.552Z,23.3
2015-03-21T15:51:21.991Z,23.3
2015-03-21T15:51:40.569Z,23.4
2015-03-21T15:51:59.116Z,23.5
2015-03-21T15:52:17.697Z,23.5
2015-03-21T15:52:36.369Z,23.6
2015-03-21T15:52:54.806Z,23.6
2015-03-21T15:53:13.181Z,23.7
2015-03-21T15:53:31.544Z,23.7
2015-03-21T15:53:49.950Z,23.8
2015-03-21T15:54:08.325Z,23.8
2015-03-21T15:54:26.811Z,23.9
2015-03-21T15:54:45.186Z,23.9
2015-03-21T15:55:03.624Z,23.9
2015-03-21T15:55:21.999Z,24
2015-03-21T15:55:40.502Z,24
2015-03-21T15:55:59.236Z,24
2015-03-21T15:56:17.658Z,24.1
2015-03-21T15:56:36.099Z,24.1
2015-03-21T15:56:54.458Z,24.1
2015-03-21T15:57:12.927Z,24.1
2015-03-21T15:57:31.349Z,24.2
2015-03-21T15:57:49.819Z,24.2
2015-03-21T15:58:08.288Z,24.2
2015-03-21T15:58:26.897Z,24.2
2015-03-21T15:58:45.587Z,24.2
2015-03-21T15:59:03.978Z,24.3
2015-03-21T15:59:22.384Z,24.3
2015-03-21T15:59:40.821Z,24.3
2015-03-21T15:59:59.512Z,24.3
2015-03-21T16:00:17.965Z,24.3
2015-03-21T16:00:36.324Z,24.3
2015-03-21T16:00:54.748Z,24.3
2015-03-21T16:01:13.123Z,24.3
2015-03-21T16:01:31.654Z,24.3
2015-03-21T16:01:50.061Z,24.3
2015-03-21T16:02:08.469Z,24.3
2015-03-21T16:02:27.016Z,24.3
2015-03-21T16:02:45.547Z,24.3
2015-03-21T16:03:03.972Z,24.3
2015-03-21T16:03:22.550Z,24.3
2015-03-21T16:03:41.222Z,24.3
2015-03-21T16:03:59.800Z,24.3
2015-03-21T16:04:18.224Z,24.3
2015-03-21T16:04:36.615Z,24.3
2015-03-21T16:04:55.005Z,24.3
2015-03-21T16:05:13.383Z,24.3
2015-03-21T16:05:31.789Z,24.3
2015-03-21T16:05:50.180Z,24.3
2015-03-21T16:06:08.680Z,24.3
2015-03-21T16:06:27.182Z,24.3
2015-03-21T16:06:45.557Z,24.2
2015-03-21T16:07:03.932Z,24.2
2015-03-21T16:07:22.357Z,24.2
2015-03-21T16:07:40.716Z,24.1
2015-03-21T16:07:59.123Z,24.1
2015-03-21T16:08:17.576Z,24.1
2015-03-21T16:08:35.953Z,24.1
2015-03-21T16:08:54.406Z,24.1
2015-03-21T16:09:12.859Z,24.1
2015-03-21T16:09:31.299Z,24.1
2015-03-21T16:09:49.674Z,24.1
2015-03-21T16:10:08.190Z,24
2015-03-21T16:10:26.643Z,24
2015-03-21T16:10:45.036Z,24
2015-03-21T16:11:03.411Z,24
2015-03-21T16:11:21.770Z,24
2015-03-21T16:11:40.164Z,24
2015-03-21T16:11:58.617Z,24
2015-03-21T16:12:17.086Z,24
2015-03-21T16:12:35.476Z,24
2015-03-21T16:12:53.948Z,24
2015-03-21T16:13:12.542Z,24
2015-03-21T16:13:31.354Z,24
2015-03-21T16:13:49.842Z,24
2015-03-21T16:14:08.342Z,23.9
2015-03-21T16:14:26.810Z,23.9
2015-03-21T16:14:45.185Z,23.9
2015-03-21T16:15:03.561Z,23.9
2015-03-21T16:15:21.936Z,23.9
2015-03-21T16:15:40.390Z,23.8
2015-03-21T16:15:58.768Z,23.8
2015-03-21T16:16:17.174Z,23.8
2015-03-21T16:16:35.643Z,23.8
2015-03-21T16:16:54.033Z,23.8
2015-03-21T16:17:12.677Z,23.8
2015-03-21T16:17:31.208Z,23.7
2015-03-21T16:17:49.786Z,23.7
2015-03-21T16:18:08.194Z,23.7
2015-03-21T16:18:26.757Z,23.7
2015-03-21T16:18:45.210Z,23.7
2015-03-21T16:19:03.632Z,23.6
2015-03-21T16:19:22.260Z,23.6
2015-03-21T16:19:40.869Z,23.6
2015-03-21T16:19:59.385Z,23.5
2015-03-21T16:20:17.778Z,23.5
2015-03-21T16:20:36.153Z,23.5
2015-03-21T16:20:54.559Z,23.4
2015-03-21T16:21:12.949Z,23.4
2015-03-21T16:21:31.326Z,23.4
2015-03-21T16:21:50.061Z,23.4
2015-03-21T16:22:08.639Z,23.4
2015-03-21T16:22:27.033Z,23.4
2015-03-21T16:22:45.486Z,23.4
2015-03-21T16:23:04.079Z,23.4
2015-03-21T16:23:22.470Z,23.4
2015-03-21T16:23:41.114Z,23.4
2015-03-21T16:23:59.676Z,23.3
2015-03-21T16:24:18.067Z,23.3
2015-03-21T16:24:36.553Z,23.3
2015-03-21T16:24:54.944Z,23.3
2015-03-21T16:25:13.319Z,23.3
2015-03-21T16:25:32.225Z,23.2
2015-03-21T16:25:50.836Z,23.2
2015-03-21T16:26:09.383Z,23.2
2015-03-21T16:26:27.883Z,23.1
2015-03-21T16:26:46.308Z,23.1
2015-03-21T16:27:04.902Z,23.1
2015-03-21T16:27:23.324Z,23.1
2015-03-21T16:27:41.808Z,23
2015-03-21T16:28:00.186Z,23
2015-03-21T16:28:18.811Z,23
2015-03-21T16:28:37.280Z,22.9
2015-03-21T16:28:55.673Z,22.9
2015-03-21T16:29:14.079Z,22.9
2015-03-21T16:29:32.501Z,22.9
2015-03-21T16:29:50.923Z,22.8
2015-03-21T16:30:09.346Z,22.8
2015-03-21T16:30:27.800Z,22.8
2015-03-21T16:30:46.159Z,22.8
2015-03-21T16:31:04.818Z,22.8
2015-03-21T16:31:23.209Z,22.8
2015-03-21T16:31:41.584Z,22.7
2015-03-21T16:31:59.959Z,22.7
2015-03-21T16:32:18.555Z,22.7
2015-03-21T16:32:36.930Z,22.7
2015-03-21T16:32:55.539Z,22.6
2015-03-21T16:33:13.917Z,22.6
2015-03-21T16:33:32.511Z,22.6
2015-03-21T16:33:51.089Z,22.6
2015-03-21T16:34:09.526Z,22.6
2015-03-21T16:34:27.904Z,22.6
2015-03-21T16:34:46.357Z,22.6
2015-03-21T16:35:04.904Z,22.5
2015-03-21T16:35:23.468Z,22.5
2015-03-21T16:35:41.937Z,22.5
2015-03-21T16:36:00.515Z,22.5
2015-03-21T16:36:18.890Z,22.5
2015-03-21T16:36:37.284Z,22.5
2015-03-21T16:36:55.737Z,22.6
2015-03-21T16:37:14.550Z,22.5
2015-03-21T16:37:32.963Z,22.5
2015-03-21T16:37:51.510Z,22.6
2015-03-21T16:38:10.151Z,22.5
2015-03-21T16:38:28.854Z,22.5
2015-03-21T16:38:47.259Z,22.5
2015-03-21T16:39:05.681Z,22.5
2015-03-21T16:39:24.056Z,22.5
2015-03-21T16:39:42.508Z,22.5
2015-03-21T16:40:00.883Z,22.5
2015-03-21T16:40:19.461Z,22.5
2015-03-21T16:40:37.883Z,22.5
2015-03-21T16:40:56.524Z,22.5
2015-03-21T16:41:14.899Z,22.5
2015-03-21T16:41:33.274Z,22.5
2015-03-21T16:41:51.664Z,22.5
2015-03-21T16:42:10.101Z,22.5
2015-03-21T16:42:28.539Z,22.5
2015-03-21T16:42:46.987Z,22.5
2015-03-21T16:43:05.456Z,22.5
2015-03-21T16:43:24.112Z,22.5
2015-03-21T16:43:42.472Z,22.6
2015-03-21T16:44:00.885Z,22.6
2015-03-21T16:44:19.291Z,22.5
2015-03-21T16:44:37.697Z,22.5
2015-03-21T16:44:56.173Z,22.5
2015-03-21T16:45:14.689Z,22.5
2015-03-21T16:45:33.048Z,22.5
2015-03-21T16:45:51.649Z,22.5
2015-03-21T16:46:10.274Z,22.5
2015-03-21T16:46:28.711Z,22.5
2015-03-21T16:46:47.149Z,22.5
2015-03-21T16:47:05.657Z,22.4
2015-03-21T16:47:24.126Z,22.4
2015-03-21T16:47:42.516Z,22.4
2015-03-21T16:48:01.115Z,22.4
2015-03-21T16:48:19.490Z,22.4
2015-03-21T16:48:37.990Z,22.4
2015-03-21T16:48:56.693Z,22.4
2015-03-21T16:49:15.056Z,22.4
2015-03-21T16:49:33.462Z,22.4
2015-03-21T16:49:51.993Z,22.4
2015-03-21T16:50:10.420Z,22.5
2015-03-21T16:50:28.951Z,22.5
2015-03-21T16:50:47.357Z,22.4
2015-03-21T16:51:06.061Z,22.4
2015-03-21T16:51:24.533Z,22.4
2015-03-21T16:51:43.205Z,22.4
2015-03-21T16:52:01.674Z,22.4
2015-03-21T16:52:20.037Z,22.4
2015-03-21T16:52:38.662Z,22.4
2015-03-21T16:52:57.053Z,22.4
2015-03-21T16:53:15.725Z,22.4
2015-03-21T16:53:34.306Z,22.4
2015-03-21T16:53:53.072Z,22.3
2015-03-21T16:54:11.650Z,22.3
2015-03-21T16:54:30.340Z,22.3
2015-03-21T16:54:48.903Z,22.2
2015-03-21T16:55:07.434Z,22.2
2015-03-21T16:55:25.809Z,22.2
2015-03-21T16:55:44.406Z,22.1
2015-03-21T16:56:02.218Z,22.1
2015-03-21T16:56:20.859Z,22.1
2015-03-21T16:56:39.424Z,22.1
2015-03-21T16:56:57.893Z,22.1
2015-03-21T16:57:16.674Z,22.1
2015-03-21T16:57:35.049Z,22.1
2015-03-21T16:57:53.786Z,22.1
2015-03-21T16:58:12.598Z,22.1
2015-03-21T16:58:31.161Z,22.1
2015-03-21T16:58:49.742Z,22.1
2015-03-21T16:59:08.148Z,22.1
2015-03-21T16:59:26.632Z,22.1
2015-03-21T16:59:45.023Z,22
2015-03-21T17:00:03.417Z,22.1
2015-03-21T17:00:21.792Z,22
2015-03-21T17:00:40.292Z,22
2015-03-21T17:00:58.685Z,22
2015-03-21T17:01:17.451Z,22
2015-03-21T17:01:35.810Z,22
2015-03-21T17:01:54.360Z,22
2015-03-21T17:02:12.798Z,21.9
2015-03-21T17:02:31.298Z,21.9
2015-03-21T17:02:49.782Z,21.9
2015-03-21T17:03:08.503Z,21.9
2015-03-21T17:03:27.081Z,21.9
2015-03-21T17:03:45.753Z,21.9
2015-03-21T17:04:04.521Z,21.9
2015-03-21T17:04:23.365Z,21.9
2015-03-21T17:04:41.787Z,21.9
2015-03-21T17:05:00.178Z,21.9
2015-03-21T17:05:18.664Z,21.9
2015-03-21T17:05:37.133Z,21.9
2015-03-21T17:05:55.648Z,21.9
2015-03-21T17:06:14.292Z,21.9
2015-03-21T17:06:32.823Z,21.9
2015-03-21T17:06:51.714Z,21.9
2015-03-21T17:07:10.622Z,21.9
2015-03-21T17:07:29.013Z,21.9
2015-03-21T17:07:47.560Z,21.9
2015-03-21T17:08:06.091Z,21.9
2015-03-21T17:08:24.515Z,21.8
2015-03-21T17:08:43.327Z,21.8
2015-03-21T17:09:01.687Z,21.8
2015-03-21T17:09:20.408Z,21.8
2015-03-21T17:09:38.815Z,21.8
2015-03-21T17:09:57.487Z,21.8
2015-03-21T17:10:15.893Z,21.8
2015-03-21T17:10:34.410Z,21.8
2015-03-21T17:10:53.035Z,21.9
2015-03-21T17:11:11.645Z,21.9
2015-03-21T17:11:30.209Z,21.9
2015-03-21T17:11:48.631Z,21.8
2015-03-21T17:12:07.022Z,21.9
2015-03-21T17:12:25.619Z,21.9
2015-03-21T17:12:43.994Z,21.9
2015-03-21T17:13:02.587Z,21.9
2015-03-21T17:13:21.025Z,21.8
2015-03-21T17:13:39.527Z,21.9
2015-03-21T17:13:58.011Z,21.9
2015-03-21T17:14:16.433Z,21.9
2015-03-21T17:14:34.842Z,21.9
2015-03-21T17:14:53.452Z,21.9
2015-03-21T17:15:12.186Z,21.9
2015-03-21T17:15:31.030Z,21.9
2015-03-21T17:15:49.407Z,21.9
2015-03-21T17:16:08.079Z,21.9
2015-03-21T17:16:26.922Z,21.9
2015-03-21T17:16:45.738Z,22
2015-03-21T17:17:04.316Z,22
2015-03-21T17:17:22.082Z,22
2015-03-21T17:17:40.662Z,22
2015-03-21T17:17:59.052Z,22
2015-03-21T17:18:17.802Z,22
2015-03-21T17:18:36.427Z,22
2015-03-21T17:18:55.461Z,22
2015-03-21T17:19:13.961Z,22
2015-03-21T17:19:32.758Z,22
2015-03-21T17:19:51.636Z,22
2015-03-21T17:20:10.323Z,22
2015-03-21T17:20:28.886Z,22
2015-03-21T17:20:47.544Z,22
2015-03-21T17:21:06.122Z,22
2015-03-21T17:21:24.544Z,22
2015-03-21T17:21:43.091Z,22
2015-03-21T17:22:01.750Z,22
2015-03-21T17:22:20.172Z,22
2015-03-21T17:22:38.672Z,22
2015-03-21T17:22:57.644Z,22
2015-03-21T17:23:16.269Z,22.1
2015-03-21T17:23:34.769Z,22.1
2015-03-21T17:23:53.692Z,22.1
2015-03-21T17:24:12.364Z,22.1
2015-03-21T17:24:30.802Z,22.1
2015-03-21T17:24:49.521Z,22.1
2015-03-21T17:25:08.006Z,22.1
2015-03-21T17:25:26.443Z,22.1
2015-03-21T17:25:45.037Z,22.1
2015-03-21T17:26:03.806Z,22.1
2015-03-21T17:26:22.571Z,22.1
2015-03-21T17:26:40.946Z,22.1
2015-03-21T17:26:59.512Z,22.1
2015-03-21T17:27:18.090Z,22.1
2015-03-21T17:27:36.574Z,22.1
2015-03-21T17:27:55.137Z,22.1
2015-03-21T17:28:14.264Z,22.1
2015-03-21T17:28:32.639Z,22.1
2015-03-21T17:28:51.389Z,22.1
2015-03-21T17:29:10.032Z,22
2015-03-21T17:29:28.500Z,22
2015-03-21T17:29:47.235Z,22
2015-03-21T17:30:06.160Z,22
2015-03-21T17:30:24.675Z,22
2015-03-21T17:30:43.269Z,22
2015-03-21T17:31:01.800Z,22
2015-03-21T17:31:20.380Z,22
2015-03-21T17:31:38.802Z,22
2015-03-21T17:31:57.396Z,21.9
2015-03-21T17:32:15.961Z,21.9
2015-03-21T17:32:34.524Z,22
2015-03-21T17:32:53.118Z,21.9
2015-03-21T17:33:11.666Z,21.9
2015-03-21T17:33:30.197Z,22
2015-03-21T17:33:48.916Z,21.9
2015-03-21T17:34:07.606Z,21.9
2015-03-21T17:34:26.309Z,22
2015-03-21T17:34:44.950Z,21.9
2015-03-21T17:35:03.684Z,22
2015-03-21T17:35:22.062Z,22
2015-03-21T17:35:40.687Z,22
2015-03-21T17:35:59.078Z,22
2015-03-21T17:36:17.674Z,22
2015-03-21T17:36:36.283Z,22
2015-03-21T17:36:54.720Z,22
2015-03-21T17:37:13.174Z,22
2015-03-21T17:37:31.801Z,22.1
2015-03-21T17:37:50.332Z,22.1
2015-03-21T17:38:09.176Z,22.1
2015-03-21T17:38:27.944Z,22.1
2015-03-21T17:38:46.804Z,22.1
2015-03-21T17:39:05.944Z,22.1
2015-03-21T17:39:24.804Z,22.1
2015-03-21T17:39:43.182Z,22.1
2015-03-21T17:40:02.057Z,22.1
2015-03-21T17:40:20.432Z,22.1
2015-03-21T17:40:38.887Z,22.1
2015-03-21T17:40:57.340Z,22.1
2015-03-21T17:41:16.137Z,22.1
2015-03-21T17:41:34.512Z,22.1
2015-03-21T17:41:53.062Z,22.1
2015-03-21T17:42:11.671Z,22.1
2015-03-21T17:42:30.140Z,22.1
2015-03-21T17:42:48.532Z,22.1
2015-03-21T17:43:07.204Z,22.1
2015-03-21T17:43:25.735Z,22.1
2015-03-21T17:43:44.439Z,22.1
2015-03-21T17:44:03.081Z,22.1
2015-03-21T17:44:21.659Z,22.1
2015-03-21T17:44:41.284Z,22.1
2015-03-21T17:44:58.662Z,22.1
2015-03-21T17:45:17.256Z,22.1
2015-03-21T17:45:35.787Z,22.1
2015-03-21T17:45:54.430Z,22.1
2015-03-21T17:46:12.992Z,22.1
2015-03-21T17:46:31.586Z,22.1
2015-03-21T17:46:50.211Z,22.1
2015-03-21T17:47:08.588Z,22.1
2015-03-21T17:47:27.526Z,22.1
2015-03-21T17:47:46.104Z,22.1
2015-03-21T17:48:04.560Z,22.1
2015-03-21T17:48:22.966Z,22.1
2015-03-21T17:48:41.388Z,22.1
2015-03-21T17:49:00.032Z,22.1
2015-03-21T17:49:19.000Z,22.1
2015-03-21T17:49:37.594Z,22.1
2015-03-21T17:49:56.172Z,22.1
2015-03-21T17:50:14.752Z,22.1
2015-03-21T17:50:32.549Z,22.1
2015-03-21T17:50:51.409Z,22.1
2015-03-21T17:51:09.801Z,22.1
2015-03-21T17:51:28.223Z,22.1
2015-03-21T17:51:46.817Z,22.1
2015-03-21T17:52:05.598Z,22.1
2015-03-21T17:52:24.429Z,22.1
2015-03-21T17:52:42.898Z,22.1
2015-03-21T17:53:01.476Z,22.1
2015-03-21T17:53:19.948Z,22.1
2015-03-21T17:53:38.651Z,22.1
2015-03-21T17:53:57.260Z,22.1
2015-03-21T17:54:15.635Z,22.1
2015-03-21T17:54:34.106Z,22.1
2015-03-21T17:54:52.684Z,22.1
2015-03-21T17:55:11.059Z,22.1
2015-03-21T17:55:29.639Z,22.1
2015-03-21T17:55:48.061Z,22.1
2015-03-21T17:56:06.780Z,22.1
2015-03-21T17:56:25.171Z,22.1
2015-03-21T17:56:43.641Z,22.1
2015-03-21T17:57:02.048Z,22.1
2015-03-21T17:57:20.782Z,22
2015-03-21T17:57:39.349Z,22
2015-03-21T17:57:57.880Z,22
2015-03-21T17:58:16.442Z,22
2015-03-21T17:58:35.208Z,22
2015-03-21T17:58:53.615Z,22
2015-03-21T17:59:12.068Z,22
2015-03-21T17:59:30.506Z,22
2015-03-21T17:59:48.868Z,22
2015-03-21T18:00:07.321Z,22
2015-03-21T18:00:25.759Z,22
2015-03-21T18:00:44.134Z,22
2015-03-21T18:01:02.839Z,21.9
2015-03-21T18:01:21.245Z,21.9
2015-03-21T18:01:39.870Z,21.9
2015-03-21T18:01:58.233Z,21.9
2015-03-21T18:02:16.639Z,21.9
2015-03-21T18:02:35.076Z,21.9
2015-03-21T18:02:53.498Z,21.9
2015-03-21T18:03:11.923Z,21.9
2015-03-21T18:03:30.345Z,21.9
2015-03-21T18:03:48.673Z,21.9
2015-03-21T18:04:07.331Z,21.9
2015-03-21T18:04:25.753Z,21.9
2015-03-21T18:04:44.331Z,21.9
2015-03-21T18:05:02.956Z,21.9
2015-03-21T18:05:21.350Z,21.9
2015-03-21T18:05:39.819Z,21.9
2015-03-21T18:05:58.194Z,21.9
2015-03-21T18:06:16.868Z,21.9
2015-03-21T18:06:35.430Z,21.9
2015-03-21T18:06:53.805Z,21.8
2015-03-21T18:07:12.196Z,21.8
2015-03-21T18:07:30.652Z,21.8
2015-03-21T18:07:49.027Z,21.9
2015-03-21T18:08:07.667Z,21.9
2015-03-21T18:08:26.202Z,21.9
2015-03-21T18:08:44.795Z,21.9
2015-03-21T18:09:03.186Z,21.9
2015-03-21T18:09:21.561Z,21.9
2015-03-21T18:09:39.954Z,21.9
2015-03-21T18:09:58.391Z,21.9
2015-03-21T18:10:16.938Z,21.9
2015-03-21T18:10:35.768Z,21.9
2015-03-21T18:10:54.159Z,21.9
2015-03-21T18:11:12.753Z,21.9
2015-03-21T18:11:31.253Z,21.8
2015-03-21T18:11:49.708Z,21.8
2015-03-21T18:12:08.083Z,21.8
2015-03-21T18:12:26.942Z,21.8
2015-03-21T18:12:45.414Z,21.8
2015-03-21T18:13:03.945Z,21.8
2015-03-21T18:13:22.429Z,21.8
2015-03-21T18:13:41.054Z,21.7
2015-03-21T18:13:59.525Z,21.7
2015-03-21T18:14:17.931Z,21.7
2015-03-21T18:14:36.541Z,21.7
2015-03-21T18:14:55.294Z,21.6
2015-03-21T18:15:13.684Z,21.6
2015-03-21T18:15:32.200Z,21.6
2015-03-21T18:15:50.919Z,21.6
2015-03-21T18:16:09.375Z,21.6
2015-03-21T18:16:27.750Z,21.5
2015-03-21T18:16:46.172Z,21.5
2015-03-21T18:17:04.533Z,21.5
2015-03-21T18:17:23.439Z,21.5
2015-03-21T18:17:42.049Z,21.5
2015-03-21T18:18:00.424Z,21.5
2015-03-21T18:18:19.129Z,21.5
2015-03-21T18:18:37.957Z,21.5
2015-03-21T18:18:56.723Z,21.5
2015-03-21T18:19:15.429Z,21.5
2015-03-21T18:19:33.179Z,21.4
2015-03-21T18:19:51.851Z,21.4
2015-03-21T18:20:10.306Z,21.4
2015-03-21T18:20:28.696Z,21.3
2015-03-21T18:20:47.103Z,21.3
2015-03-21T18:21:05.775Z,21.2
2015-03-21T18:21:24.184Z,21.2
2015-03-21T18:21:42.762Z,21.1
2015-03-21T18:22:01.153Z,21.1
2015-03-21T18:22:19.780Z,21.1
2015-03-21T18:22:38.170Z,21
2015-03-21T18:22:56.905Z,21
2015-03-21T18:23:15.282Z,21
2015-03-21T18:23:33.797Z,21
2015-03-21T18:23:52.188Z,21
2015-03-21T18:24:10.578Z,20.9
2015-03-21T18:24:29.066Z,20.9
2015-03-21T18:24:47.519Z,20.9
2015-03-21T18:25:05.894Z,20.9
2015-03-21T18:25:24.349Z,20.9
2015-03-21T18:25:42.724Z,20.9
2015-03-21T18:26:01.302Z,20.9
2015-03-21T18:26:19.849Z,20.8
2015-03-21T18:26:38.617Z,20.8
2015-03-21T18:26:57.148Z,20.8
2015-03-21T18:27:15.523Z,20.8
2015-03-21T18:27:34.043Z,20.8
2015-03-21T18:27:52.511Z,20.8
2015-03-21T18:28:10.980Z,20.8
2015-03-21T18:28:29.371Z,20.8
2015-03-21T18:28:47.747Z,20.8
2015-03-21T18:29:06.309Z,20.7
2015-03-21T18:29:24.950Z,20.8
2015-03-21T18:29:43.390Z,20.7
2015-03-21T18:30:01.812Z,20.7
2015-03-21T18:30:20.250Z,20.7
2015-03-21T18:30:38.656Z,20.7
2015-03-21T18:30:57.424Z,20.7
2015-03-21T18:31:16.142Z,20.6
2015-03-21T18:31:34.564Z,20.6
2015-03-21T18:31:53.177Z,20.6
2015-03-21T18:32:11.770Z,20.6
2015-03-21T18:32:30.145Z,20.6
2015-03-21T18:32:48.520Z,20.7
2015-03-21T18:33:07.538Z,20.7
2015-03-21T18:33:25.975Z,20.7
2015-03-21T18:33:44.788Z,20.7
2015-03-21T18:34:03.228Z,20.7
2015-03-21T18:34:21.619Z,20.7
2015-03-21T18:34:40.057Z,20.7
2015-03-21T18:34:58.463Z,20.7
2015-03-21T18:35:17.106Z,20.8
2015-03-21T18:35:35.466Z,20.8
2015-03-21T18:35:53.903Z,20.8
2015-03-21T18:36:12.280Z,20.8
2015-03-21T18:36:30.843Z,20.8
2015-03-21T18:36:49.343Z,20.8
2015-03-21T18:37:07.749Z,20.8
2015-03-21T18:37:26.361Z,20.9
2015-03-21T18:37:44.986Z,20.9
2015-03-21T18:38:03.346Z,20.9
2015-03-21T18:38:21.771Z,20.9
2015-03-21T18:38:40.224Z,20.9
2015-03-21T18:38:58.599Z,20.9
2015-03-21T18:39:17.114Z,20.9
2015-03-21T18:39:35.615Z,20.9
2015-03-21T18:39:54.162Z,20.9
2015-03-21T18:40:12.600Z,20.9
2015-03-21T18:40:31.275Z,20.9
2015-03-21T18:40:49.728Z,20.9
2015-03-21T18:41:08.243Z,20.9
2015-03-21T18:41:26.681Z,20.9
2015-03-21T18:41:45.120Z,20.9
2015-03-21T18:42:04.370Z,20.9
2015-03-21T18:42:22.933Z,20.9
2015-03-21T18:42:41.327Z,20.9
2015-03-21T18:42:59.702Z,20.9
2015-03-21T18:43:18.108Z,20.9
2015-03-21T18:43:36.483Z,20.9
2015-03-21T18:43:54.875Z,20.9
2015-03-21T18:44:13.454Z,20.9
2015-03-21T18:44:31.844Z,20.9
2015-03-21T18:44:50.316Z,20.9
2015-03-21T18:45:08.691Z,20.9
2015-03-21T18:45:27.113Z,20.9
2015-03-21T18:45:45.472Z,20.9
2015-03-21T18:46:03.880Z,20.8
2015-03-21T18:46:22.365Z,20.9
2015-03-21T18:46:40.802Z,20.8
2015-03-21T18:46:59.290Z,20.8
2015-03-21T18:47:17.696Z,20.8
2015-03-21T18:47:36.102Z,20.8
2015-03-21T18:47:54.696Z,20.8
2015-03-21T18:48:13.089Z,20.8
2015-03-21T18:48:31.510Z,20.8
2015-03-21T18:48:49.885Z,20.8
2015-03-21T18:49:08.310Z,20.8
2015-03-21T18:49:26.826Z,20.8
2015-03-21T18:49:45.232Z,20.8
2015-03-21T18:50:03.654Z,20.8
2015-03-21T18:50:22.031Z,20.8
2015-03-21T18:50:40.531Z,20.8
2015-03-21T18:50:59.031Z,20.8
2015-03-21T18:51:17.393Z,20.8
2015-03-21T18:51:35.893Z,20.8
2015-03-21T18:51:54.487Z,20.8
2015-03-21T18:52:13.065Z,20.9
2015-03-21T18:52:31.692Z,20.9
2015-03-21T18:52:50.114Z,20.9
2015-03-21T18:53:08.614Z,20.9
2015-03-21T18:53:26.992Z,20.9
2015-03-21T18:53:45.773Z,20.9
2015-03-21T18:54:04.211Z,20.9
2015-03-21T18:54:22.773Z,20.9
2015-03-21T18:54:41.525Z,20.9
2015-03-21T18:54:59.900Z,20.9
2015-03-21T18:55:18.604Z,20.9
2015-03-21T18:55:36.966Z,20.9
2015-03-21T18:55:55.591Z,20.9
2015-03-21T18:56:14.122Z,20.9
2015-03-21T18:56:32.575Z,20.9
2015-03-21T18:56:50.984Z,20.9
2015-03-21T18:57:09.405Z,20.9
2015-03-21T18:57:27.780Z,20.8
2015-03-21T18:57:46.299Z,20.8
2015-03-21T18:58:04.783Z,20.8
2015-03-21T18:58:23.705Z,20.8
2015-03-21T18:58:42.080Z,20.8
2015-03-21T18:59:00.660Z,20.8
2015-03-21T18:59:19.114Z,20.7
2015-03-21T18:59:37.770Z,20.7
2015-03-21T18:59:56.163Z,20.7
2015-03-21T19:00:14.945Z,20.7
2015-03-21T19:00:33.335Z,20.7
2015-03-21T19:00:51.804Z,20.7
2015-03-21T19:01:10.213Z,20.7
2015-03-21T19:01:28.745Z,20.7
2015-03-21T19:01:47.198Z,20.7
2015-03-21T19:02:05.637Z,20.7
2015-03-21T19:02:24.043Z,20.8
2015-03-21T19:02:42.450Z,20.8
2015-03-21T19:03:00.825Z,20.8
2015-03-21T19:03:19.280Z,20.8
2015-03-21T19:03:37.811Z,20.8
2015-03-21T19:03:56.233Z,20.8
2015-03-21T19:04:14.891Z,20.8
2015-03-21T19:04:33.438Z,20.8
2015-03-21T19:04:51.813Z,20.8
2015-03-21T19:05:10.394Z,20.8
2015-03-21T19:05:28.769Z,20.9
2015-03-21T19:05:47.254Z,20.9
2015-03-21T19:06:05.629Z,20.9
2015-03-21T19:06:24.007Z,20.9
2015-03-21T19:06:42.382Z,20.9
2015-03-21T19:07:00.897Z,20.9
2015-03-21T19:07:19.273Z,20.9
2015-03-21T19:07:37.758Z,20.9
2015-03-21T19:07:56.133Z,20.9
2015-03-21T19:08:14.761Z,20.9
2015-03-21T19:08:33.151Z,20.9
2015-03-21T19:08:51.511Z,20.9
2015-03-21T19:09:09.995Z,20.9
2015-03-21T19:09:28.497Z,20.9
2015-03-21T19:09:46.872Z,20.9
2015-03-21T19:10:05.247Z,20.9
2015-03-21T19:10:23.624Z,20.9
2015-03-21T19:10:42.030Z,20.9
2015-03-21T19:11:00.452Z,20.9
2015-03-21T19:11:18.829Z,20.9
2015-03-21T19:11:37.235Z,20.9
2015-03-21T19:11:55.845Z,20.9
2015-03-21T19:12:14.298Z,20.9
2015-03-21T19:12:32.691Z,20.9
2015-03-21T19:12:51.254Z,20.9
2015-03-21T19:13:09.629Z,20.9
2015-03-21T19:13:28.132Z,20.9
2015-03-21T19:13:46.663Z,20.9
2015-03-21T19:14:05.116Z,20.9
2015-03-21T19:14:23.539Z,20.9
2015-03-21T19:14:41.930Z,20.9
2015-03-21T19:15:00.524Z,20.9
2015-03-21T19:15:19.152Z,20.9
2015-03-21T19:15:37.808Z,20.9
2015-03-21T19:15:56.448Z,20.9
2015-03-21T19:16:15.042Z,20.9
2015-03-21T19:16:33.654Z,20.9
2015-03-21T19:16:52.263Z,20.9
2015-03-21T19:17:13.841Z,20.8
2015-03-21T19:17:32.235Z,20.8
2015-03-21T19:17:50.907Z,20.9
2015-03-21T19:18:09.516Z,20.8
2015-03-21T19:18:28.081Z,20.8
2015-03-21T19:18:46.566Z,20.8
2015-03-21T19:19:05.331Z,20.8
2015-03-21T19:19:24.083Z,20.8
2015-03-21T19:19:42.958Z,20.8
2015-03-21T19:20:01.724Z,20.8
2015-03-21T19:20:20.505Z,20.8
2015-03-21T19:20:39.320Z,20.8
2015-03-21T19:20:58.210Z,20.8
2015-03-21T19:21:17.164Z,20.8
2015-03-21T19:21:36.198Z,20.8
2015-03-21T19:21:54.948Z,20.8
2015-03-21T19:22:13.588Z,20.8
2015-03-21T19:22:32.027Z,20.8
2015-03-21T19:22:50.464Z,20.8
2015-03-21T19:23:09.011Z,20.8
2015-03-21T19:23:27.749Z,20.8
2015-03-21T19:23:46.452Z,20.8
2015-03-21T19:24:05.046Z,20.8
2015-03-21T19:24:23.546Z,20.8
2015-03-21T19:24:42.016Z,20.8
2015-03-21T19:25:00.454Z,20.8
2015-03-21T19:25:18.969Z,20.8
2015-03-21T19:25:37.471Z,20.8
2015-03-21T19:25:55.940Z,20.8
2015-03-21T19:26:14.612Z,20.8
2015-03-21T19:26:33.256Z,20.8
2015-03-21T19:26:51.771Z,20.8
2015-03-21T19:27:10.178Z,20.8
2015-03-21T19:27:28.599Z,20.8
2015-03-21T19:27:47.508Z,20.8
2015-03-21T19:28:06.055Z,20.8
2015-03-21T19:28:24.523Z,20.8
2015-03-21T19:28:43.354Z,20.8
2015-03-21T19:29:01.979Z,20.8
2015-03-21T19:29:20.558Z,20.8
2015-03-21T19:29:39.231Z,20.8
2015-03-21T19:29:58.028Z,20.8
2015-03-21T19:30:16.575Z,20.8
2015-03-21T19:30:35.187Z,20.8
2015-03-21T19:30:53.796Z,20.8
2015-03-21T19:31:12.343Z,20.8
2015-03-21T19:31:31.155Z,20.8
2015-03-21T19:31:49.829Z,20.8
2015-03-21T19:32:08.454Z,20.8
2015-03-21T19:32:27.079Z,20.8
2015-03-21T19:32:45.598Z,20.8
2015-03-21T19:33:04.035Z,20.8
2015-03-21T19:33:22.488Z,20.8
2015-03-21T19:33:40.929Z,20.8
2015-03-21T19:33:59.398Z,20.8
2015-03-21T19:34:17.913Z,20.8
2015-03-21T19:34:36.413Z,20.8
2015-03-21T19:34:55.336Z,20.8
2015-03-21T19:35:13.992Z,20.8
2015-03-21T19:35:32.789Z,20.8
2015-03-21T19:35:51.214Z,20.8
2015-03-21T19:36:10.042Z,20.8
2015-03-21T19:36:28.683Z,20.8
2015-03-21T19:36:47.388Z,20.8
2015-03-21T19:37:05.872Z,20.8
2015-03-21T19:37:24.513Z,20.8
2015-03-21T19:37:43.172Z,20.8
2015-03-21T19:38:01.766Z,20.8
2015-03-21T19:38:20.219Z,20.8
2015-03-21T19:38:38.985Z,20.8
2015-03-21T19:38:57.362Z,20.8
2015-03-21T19:39:15.909Z,20.8
2015-03-21T19:39:34.362Z,20.8
2015-03-21T19:39:52.848Z,20.8
2015-03-21T19:40:11.301Z,20.8
2015-03-21T19:40:30.161Z,20.8
2015-03-21T19:40:48.976Z,20.8
2015-03-21T19:41:07.695Z,20.8
2015-03-21T19:41:26.242Z,20.8
2015-03-21T19:41:44.822Z,20.8
2015-03-21T19:42:03.431Z,20.8
2015-03-21T19:42:22.134Z,20.8
2015-03-21T19:42:40.572Z,20.8
2015-03-21T19:42:59.169Z,20.8
2015-03-21T19:43:17.856Z,20.8
2015-03-21T19:43:36.622Z,20.8
2015-03-21T19:43:55.280Z,20.8
2015-03-21T19:44:13.858Z,20.8
2015-03-21T19:44:32.624Z,20.8
2015-03-21T19:44:51.063Z,20.8
2015-03-21T19:45:09.954Z,20.8
2015-03-21T19:45:28.907Z,20.8
2015-03-21T19:45:47.376Z,20.8
2015-03-21T19:46:05.863Z,20.8
2015-03-21T19:46:24.691Z,20.8
2015-03-21T19:46:43.348Z,20.8
2015-03-21T19:47:02.271Z,20.8
2015-03-21T19:47:20.865Z,20.8
2015-03-21T19:47:39.334Z,20.8
2015-03-21T19:47:58.118Z,20.8
2015-03-21T19:48:16.806Z,20.8
2015-03-21T19:48:35.243Z,20.8
2015-03-21T19:48:53.839Z,20.7
2015-03-21T19:49:12.370Z,20.7
2015-03-21T19:49:31.183Z,20.7
2015-03-21T19:49:49.589Z,20.7
2015-03-21T19:50:08.153Z,20.7
2015-03-21T19:50:26.747Z,20.7
2015-03-21T19:50:45.185Z,20.7
2015-03-21T19:51:03.984Z,20.7
2015-03-21T19:51:22.421Z,20.7
2015-03-21T19:51:41.234Z,20.7
2015-03-21T19:52:00.002Z,20.7
2015-03-21T19:52:18.752Z,20.7
2015-03-21T19:52:37.658Z,20.7
2015-03-21T19:52:56.114Z,20.7
2015-03-21T19:53:14.957Z,20.7
2015-03-21T19:53:33.457Z,20.7
2015-03-21T19:53:51.910Z,20.7